sensor_id;sensor_type;location;lat;lon;timestamp;temperature;humidity
11426;DHT22;5769;47.998;7.788;2022-08-19T00:01:12;22.70;90.80
11426;DHT22;5769;47.998;7.788;2022-08-19T00:03:39;22.70;90.90
11426;DHT22;5769;47.998;7.788;2022-08-19T00:06:06;22.70;91.00
11426;DHT22;5769;47.998;7.788;2022-08-19T00:08:32;22.60;90.90
11426;DHT22;5769;47.998;7.788;2022-08-19T00:10:59;22.60;90.80
11426;DHT22;5769;47.998;7.788;2022-08-19T00:13:26;22.70;90.70
11426;DHT22;5769;47.998;7.788;2022-08-19T00:15:55;22.60;90.70
11426;DHT22;5769;47.998;7.788;2022-08-19T00:18:24;22.60;90.60
11426;DHT22;5769;47.998;7.788;2022-08-19T00:20:51;22.70;90.80
11426;DHT22;5769;47.998;7.788;2022-08-19T00:23:18;22.60;90.80
11426;DHT22;5769;47.998;7.788;2022-08-19T00:25:45;22.60;90.80
11426;DHT22;5769;47.998;7.788;2022-08-19T00:28:13;22.70;90.80
11426;DHT22;5769;47.998;7.788;2022-08-19T00:30:40;22.60;90.80
11426;DHT22;5769;47.998;7.788;2022-08-19T00:33:14;22.60;90.70
11426;DHT22;5769;47.998;7.788;2022-08-19T00:35:42;22.70;90.70
11426;DHT22;5769;47.998;7.788;2022-08-19T00:38:08;22.60;90.60
11426;DHT22;5769;47.998;7.788;2022-08-19T00:40:35;22.60;90.70
11426;DHT22;5769;47.998;7.788;2022-08-19T00:43:08;22.60;90.70
11426;DHT22;5769;47.998;7.788;2022-08-19T00:45:35;22.60;90.60
11426;DHT22;5769;47.998;7.788;2022-08-19T00:48:02;22.60;90.60
11426;DHT22;5769;47.998;7.788;2022-08-19T00:50:31;22.60;90.70
11426;DHT22;5769;47.998;7.788;2022-08-19T00:52:59;22.60;90.60
11426;DHT22;5769;47.998;7.788;2022-08-19T00:55:30;22.60;90.70
11426;DHT22;5769;47.998;7.788;2022-08-19T00:58:01;22.60;90.60
11426;DHT22;5769;47.998;7.788;2022-08-19T01:00:30;22.60;90.60
11426;DHT22;5769;47.998;7.788;2022-08-19T01:02:58;22.60;90.70
11426;DHT22;5769;47.998;7.788;2022-08-19T01:05:27;22.60;90.60
11426;DHT22;5769;47.998;7.788;2022-08-19T01:07:59;22.60;90.70
11426;DHT22;5769;47.998;7.788;2022-08-19T01:10:28;22.60;90.70
11426;DHT22;5769;47.998;7.788;2022-08-19T01:12:57;22.60;90.70
11426;DHT22;5769;47.998;7.788;2022-08-19T01:15:29;22.60;90.70
11426;DHT22;5769;47.998;7.788;2022-08-19T01:17:58;22.60;90.60
11426;DHT22;5769;47.998;7.788;2022-08-19T01:20:26;22.60;90.70
11426;DHT22;5769;47.998;7.788;2022-08-19T01:22:56;22.60;90.80
11426;DHT22;5769;47.998;7.788;2022-08-19T01:25:26;22.60;90.70
11426;DHT22;5769;47.998;7.788;2022-08-19T01:27:54;22.60;90.70
11426;DHT22;5769;47.998;7.788;2022-08-19T01:30:23;22.60;90.80
11426;DHT22;5769;47.998;7.788;2022-08-19T01:32:50;22.60;90.70
11426;DHT22;5769;47.998;7.788;2022-08-19T01:35:17;22.60;90.70
11426;DHT22;5769;47.998;7.788;2022-08-19T01:37:46;22.60;90.80
11426;DHT22;5769;47.998;7.788;2022-08-19T01:40:15;22.60;90.60
11426;DHT22;5769;47.998;7.788;2022-08-19T01:42:42;22.60;90.70
11426;DHT22;5769;47.998;7.788;2022-08-19T01:45:09;22.60;90.80
11426;DHT22;5769;47.998;7.788;2022-08-19T01:47:37;22.60;90.70
11426;DHT22;5769;47.998;7.788;2022-08-19T01:50:05;22.60;90.70
11426;DHT22;5769;47.998;7.788;2022-08-19T01:52:33;22.60;90.80
11426;DHT22;5769;47.998;7.788;2022-08-19T01:55:00;22.60;91.10
11426;DHT22;5769;47.998;7.788;2022-08-19T01:57:29;22.60;90.90
11426;DHT22;5769;47.998;7.788;2022-08-19T01:59:56;22.60;90.80
11426;DHT22;5769;47.998;7.788;2022-08-19T02:02:23;22.60;90.80
11426;DHT22;5769;47.998;7.788;2022-08-19T02:04:50;22.60;90.90
11426;DHT22;5769;47.998;7.788;2022-08-19T02:07:19;22.60;90.90
11426;DHT22;5769;47.998;7.788;2022-08-19T02:09:47;22.60;90.90
11426;DHT22;5769;47.998;7.788;2022-08-19T02:12:14;22.60;90.80
11426;DHT22;5769;47.998;7.788;2022-08-19T02:14:43;22.60;90.80
11426;DHT22;5769;47.998;7.788;2022-08-19T02:17:09;22.60;90.80
11426;DHT22;5769;47.998;7.788;2022-08-19T02:19:36;22.60;90.80
11426;DHT22;5769;47.998;7.788;2022-08-19T02:22:03;22.60;91.10
11426;DHT22;5769;47.998;7.788;2022-08-19T02:24:31;22.60;90.70
11426;DHT22;5769;47.998;7.788;2022-08-19T02:26:57;22.60;90.70
11426;DHT22;5769;47.998;7.788;2022-08-19T02:29:24;22.60;90.60
11426;DHT22;5769;47.998;7.788;2022-08-19T02:31:52;22.60;90.60
11426;DHT22;5769;47.998;7.788;2022-08-19T02:34:19;22.50;90.60
11426;DHT22;5769;47.998;7.788;2022-08-19T02:36:46;22.60;90.60
11426;DHT22;5769;47.998;7.788;2022-08-19T02:39:13;22.50;90.60
11426;DHT22;5769;47.998;7.788;2022-08-19T02:41:39;22.60;90.60
11426;DHT22;5769;47.998;7.788;2022-08-19T02:44:06;22.60;90.50
11426;DHT22;5769;47.998;7.788;2022-08-19T02:46:33;22.60;90.60
11426;DHT22;5769;47.998;7.788;2022-08-19T02:49:04;22.60;90.60
11426;DHT22;5769;47.998;7.788;2022-08-19T02:51:33;22.50;90.50
11426;DHT22;5769;47.998;7.788;2022-08-19T02:54:01;22.60;90.50
11426;DHT22;5769;47.998;7.788;2022-08-19T02:56:28;22.60;90.50
11426;DHT22;5769;47.998;7.788;2022-08-19T02:58:56;22.50;90.50
11426;DHT22;5769;47.998;7.788;2022-08-19T03:01:26;22.60;90.50
11426;DHT22;5769;47.998;7.788;2022-08-19T03:03:53;22.60;90.40
11426;DHT22;5769;47.998;7.788;2022-08-19T03:06:22;22.50;90.40
11426;DHT22;5769;47.998;7.788;2022-08-19T03:08:50;22.50;90.50
11426;DHT22;5769;47.998;7.788;2022-08-19T03:11:19;22.50;90.50
11426;DHT22;5769;47.998;7.788;2022-08-19T03:13:46;22.50;90.60
11426;DHT22;5769;47.998;7.788;2022-08-19T03:16:15;22.50;90.50
11426;DHT22;5769;47.998;7.788;2022-08-19T03:18:42;22.50;90.50
11426;DHT22;5769;47.998;7.788;2022-08-19T03:21:09;22.50;90.50
11426;DHT22;5769;47.998;7.788;2022-08-19T03:23:42;22.50;90.50
11426;DHT22;5769;47.998;7.788;2022-08-19T03:26:09;22.50;90.60
11426;DHT22;5769;47.998;7.788;2022-08-19T03:28:36;22.50;90.50
11426;DHT22;5769;47.998;7.788;2022-08-19T03:31:05;22.50;90.40
11426;DHT22;5769;47.998;7.788;2022-08-19T03:33:33;22.50;90.40
11426;DHT22;5769;47.998;7.788;2022-08-19T03:36:02;22.50;90.30
11426;DHT22;5769;47.998;7.788;2022-08-19T03:38:29;22.50;90.40
11426;DHT22;5769;47.998;7.788;2022-08-19T03:40:57;22.50;90.40
11426;DHT22;5769;47.998;7.788;2022-08-19T03:43:24;22.50;90.50
11426;DHT22;5769;47.998;7.788;2022-08-19T03:46:00;22.50;90.50
11426;DHT22;5769;47.998;7.788;2022-08-19T03:48:29;22.50;90.40
11426;DHT22;5769;47.998;7.788;2022-08-19T03:50:56;22.50;90.40
11426;DHT22;5769;47.998;7.788;2022-08-19T03:53:24;22.50;90.40
11426;DHT22;5769;47.998;7.788;2022-08-19T03:55:52;22.50;90.40
11426;DHT22;5769;47.998;7.788;2022-08-19T03:58:21;22.50;90.40
11426;DHT22;5769;47.998;7.788;2022-08-19T04:00:48;22.50;90.80
11426;DHT22;5769;47.998;7.788;2022-08-19T04:03:14;22.50;90.40
11426;DHT22;5769;47.998;7.788;2022-08-19T04:05:41;22.50;90.50
11426;DHT22;5769;47.998;7.788;2022-08-19T04:08:08;22.50;90.40
11426;DHT22;5769;47.998;7.788;2022-08-19T04:10:35;22.50;90.40
11426;DHT22;5769;47.998;7.788;2022-08-19T04:13:02;22.50;90.50
11426;DHT22;5769;47.998;7.788;2022-08-19T04:15:32;22.50;90.50
11426;DHT22;5769;47.998;7.788;2022-08-19T04:18:05;22.50;90.50
11426;DHT22;5769;47.998;7.788;2022-08-19T04:20:33;22.50;90.50
11426;DHT22;5769;47.998;7.788;2022-08-19T04:23:04;22.50;90.50
11426;DHT22;5769;47.998;7.788;2022-08-19T04:25:35;22.50;90.60
11426;DHT22;5769;47.998;7.788;2022-08-19T04:28:03;22.50;90.70
11426;DHT22;5769;47.998;7.788;2022-08-19T04:30:29;22.50;90.70
11426;DHT22;5769;47.998;7.788;2022-08-19T04:32:58;22.50;90.50
11426;DHT22;5769;47.998;7.788;2022-08-19T04:35:24;22.50;90.40
11426;DHT22;5769;47.998;7.788;2022-08-19T04:37:51;22.50;90.60
11426;DHT22;5769;47.998;7.788;2022-08-19T04:40:18;22.50;90.60
11426;DHT22;5769;47.998;7.788;2022-08-19T04:43:02;22.40;90.50
11426;DHT22;5769;47.998;7.788;2022-08-19T04:45:29;22.50;90.50
11426;DHT22;5769;47.998;7.788;2022-08-19T04:47:57;22.50;90.50
11426;DHT22;5769;47.998;7.788;2022-08-19T04:50:24;22.50;90.50
11426;DHT22;5769;47.998;7.788;2022-08-19T04:52:51;22.50;90.40
11426;DHT22;5769;47.998;7.788;2022-08-19T04:55:18;22.50;90.50
11426;DHT22;5769;47.998;7.788;2022-08-19T04:57:45;22.40;90.40
11426;DHT22;5769;47.998;7.788;2022-08-19T05:00:12;22.50;90.50
11426;DHT22;5769;47.998;7.788;2022-08-19T05:02:39;22.50;90.50
11426;DHT22;5769;47.998;7.788;2022-08-19T05:05:07;22.50;90.50
11426;DHT22;5769;47.998;7.788;2022-08-19T05:07:34;22.50;90.50
11426;DHT22;5769;47.998;7.788;2022-08-19T05:10:02;22.50;90.40
11426;DHT22;5769;47.998;7.788;2022-08-19T05:12:29;22.50;90.30
11426;DHT22;5769;47.998;7.788;2022-08-19T05:14:56;22.50;90.30
11426;DHT22;5769;47.998;7.788;2022-08-19T05:17:23;22.50;90.30
11426;DHT22;5769;47.998;7.788;2022-08-19T05:19:50;22.50;90.30
11426;DHT22;5769;47.998;7.788;2022-08-19T05:22:36;22.50;90.40
11426;DHT22;5769;47.998;7.788;2022-08-19T05:25:06;22.40;90.30
11426;DHT22;5769;47.998;7.788;2022-08-19T05:27:33;22.50;90.40
11426;DHT22;5769;47.998;7.788;2022-08-19T05:30:00;22.50;90.40
11426;DHT22;5769;47.998;7.788;2022-08-19T05:32:27;22.50;90.30
11426;DHT22;5769;47.998;7.788;2022-08-19T05:34:54;22.50;90.40
11426;DHT22;5769;47.998;7.788;2022-08-19T05:37:21;22.40;90.30
11426;DHT22;5769;47.998;7.788;2022-08-19T05:39:50;22.40;90.30
11426;DHT22;5769;47.998;7.788;2022-08-19T05:42:16;22.50;90.40
11426;DHT22;5769;47.998;7.788;2022-08-19T05:44:45;22.50;90.30
11426;DHT22;5769;47.998;7.788;2022-08-19T05:47:15;22.40;90.40
11426;DHT22;5769;47.998;7.788;2022-08-19T05:49:44;22.40;90.40
11426;DHT22;5769;47.998;7.788;2022-08-19T05:52:12;22.40;90.30
11426;DHT22;5769;47.998;7.788;2022-08-19T05:54:41;22.50;90.20
11426;DHT22;5769;47.998;7.788;2022-08-19T05:57:09;22.40;90.30
11426;DHT22;5769;47.998;7.788;2022-08-19T05:59:36;22.40;90.30
11426;DHT22;5769;47.998;7.788;2022-08-19T06:02:04;22.40;90.20
11426;DHT22;5769;47.998;7.788;2022-08-19T06:04:31;22.50;90.30
11426;DHT22;5769;47.998;7.788;2022-08-19T06:06:58;22.40;90.30
11426;DHT22;5769;47.998;7.788;2022-08-19T06:09:27;22.50;90.30
11426;DHT22;5769;47.998;7.788;2022-08-19T06:11:55;22.40;90.30
11426;DHT22;5769;47.998;7.788;2022-08-19T06:14:28;22.50;90.30
11426;DHT22;5769;47.998;7.788;2022-08-19T06:16:56;22.40;90.30
11426;DHT22;5769;47.998;7.788;2022-08-19T06:19:23;22.40;90.20
11426;DHT22;5769;47.998;7.788;2022-08-19T06:21:51;22.50;90.30
11426;DHT22;5769;47.998;7.788;2022-08-19T06:24:21;22.40;90.30
11426;DHT22;5769;47.998;7.788;2022-08-19T06:26:51;22.50;90.40
11426;DHT22;5769;47.998;7.788;2022-08-19T06:29:20;22.50;90.40
11426;DHT22;5769;47.998;7.788;2022-08-19T06:31:50;22.50;90.30
11426;DHT22;5769;47.998;7.788;2022-08-19T06:34:18;22.50;90.30
11426;DHT22;5769;47.998;7.788;2022-08-19T06:36:46;22.50;90.20
11426;DHT22;5769;47.998;7.788;2022-08-19T06:39:16;22.40;90.20
11426;DHT22;5769;47.998;7.788;2022-08-19T06:41:45;22.50;90.20
11426;DHT22;5769;47.998;7.788;2022-08-19T06:44:13;22.50;90.20
11426;DHT22;5769;47.998;7.788;2022-08-19T06:46:40;22.50;90.20
11426;DHT22;5769;47.998;7.788;2022-08-19T06:49:09;22.50;90.20
11426;DHT22;5769;47.998;7.788;2022-08-19T06:51:40;22.50;90.20
11426;DHT22;5769;47.998;7.788;2022-08-19T06:54:07;22.40;90.30
11426;DHT22;5769;47.998;7.788;2022-08-19T06:56:34;22.50;90.30
11426;DHT22;5769;47.998;7.788;2022-08-19T06:59:03;22.50;90.30
11426;DHT22;5769;47.998;7.788;2022-08-19T07:01:33;22.50;90.30
11426;DHT22;5769;47.998;7.788;2022-08-19T07:04:00;22.50;90.40
11426;DHT22;5769;47.998;7.788;2022-08-19T07:06:29;22.40;90.40
11426;DHT22;5769;47.998;7.788;2022-08-19T07:08:57;22.40;90.50
11426;DHT22;5769;47.998;7.788;2022-08-19T07:11:24;22.50;90.50
11426;DHT22;5769;47.998;7.788;2022-08-19T07:13:51;22.50;90.60
11426;DHT22;5769;47.998;7.788;2022-08-19T07:16:19;22.40;90.60
11426;DHT22;5769;47.998;7.788;2022-08-19T07:18:46;22.50;90.50
11426;DHT22;5769;47.998;7.788;2022-08-19T07:21:16;22.50;90.60
11426;DHT22;5769;47.998;7.788;2022-08-19T07:23:45;22.40;90.50
11426;DHT22;5769;47.998;7.788;2022-08-19T07:26:14;22.50;90.50
11426;DHT22;5769;47.998;7.788;2022-08-19T07:28:41;22.50;90.70
11426;DHT22;5769;47.998;7.788;2022-08-19T07:31:10;22.50;90.60
11426;DHT22;5769;47.998;7.788;2022-08-19T07:33:37;22.50;90.70
11426;DHT22;5769;47.998;7.788;2022-08-19T07:36:05;22.50;90.60
11426;DHT22;5769;47.998;7.788;2022-08-19T07:38:33;22.50;90.70
11426;DHT22;5769;47.998;7.788;2022-08-19T07:41:02;22.50;90.90
11426;DHT22;5769;47.998;7.788;2022-08-19T07:43:29;22.50;91.00
11426;DHT22;5769;47.998;7.788;2022-08-19T07:45:55;22.50;91.00
11426;DHT22;5769;47.998;7.788;2022-08-19T07:48:23;22.50;91.00
11426;DHT22;5769;47.998;7.788;2022-08-19T07:50:51;22.50;91.00
11426;DHT22;5769;47.998;7.788;2022-08-19T07:53:17;22.50;90.90
11426;DHT22;5769;47.998;7.788;2022-08-19T07:55:45;22.50;91.20
11426;DHT22;5769;47.998;7.788;2022-08-19T07:58:15;22.50;91.00
11426;DHT22;5769;47.998;7.788;2022-08-19T08:00:43;22.50;91.00
11426;DHT22;5769;47.998;7.788;2022-08-19T08:03:10;22.50;91.10
11426;DHT22;5769;47.998;7.788;2022-08-19T08:05:37;22.50;91.00
11426;DHT22;5769;47.998;7.788;2022-08-19T08:08:22;22.50;91.10
11426;DHT22;5769;47.998;7.788;2022-08-19T08:11:06;22.50;91.00
11426;DHT22;5769;47.998;7.788;2022-08-19T08:13:34;22.50;91.10
11426;DHT22;5769;47.998;7.788;2022-08-19T08:16:02;22.50;91.10
11426;DHT22;5769;47.998;7.788;2022-08-19T08:18:28;22.50;91.10
11426;DHT22;5769;47.998;7.788;2022-08-19T08:20:57;22.50;91.20
11426;DHT22;5769;47.998;7.788;2022-08-19T08:23:24;22.50;91.20
11426;DHT22;5769;47.998;7.788;2022-08-19T08:25:52;22.50;91.20
11426;DHT22;5769;47.998;7.788;2022-08-19T08:28:20;22.50;91.50
11426;DHT22;5769;47.998;7.788;2022-08-19T08:30:49;22.50;91.20
11426;DHT22;5769;47.998;7.788;2022-08-19T08:33:18;22.50;91.30
11426;DHT22;5769;47.998;7.788;2022-08-19T08:35:45;22.50;91.20
11426;DHT22;5769;47.998;7.788;2022-08-19T08:38:13;22.50;91.30
11426;DHT22;5769;47.998;7.788;2022-08-19T08:40:44;22.50;91.30
11426;DHT22;5769;47.998;7.788;2022-08-19T08:43:19;22.50;91.20
11426;DHT22;5769;47.998;7.788;2022-08-19T08:45:55;22.50;91.30
11426;DHT22;5769;47.998;7.788;2022-08-19T08:48:27;22.50;91.30
11426;DHT22;5769;47.998;7.788;2022-08-19T08:50:59;22.50;91.30
11426;DHT22;5769;47.998;7.788;2022-08-19T08:53:27;22.50;91.30
11426;DHT22;5769;47.998;7.788;2022-08-19T08:55:55;22.50;91.30
11426;DHT22;5769;47.998;7.788;2022-08-19T08:58:27;22.50;91.40
11426;DHT22;5769;47.998;7.788;2022-08-19T09:00:57;22.50;91.30
11426;DHT22;5769;47.998;7.788;2022-08-19T09:03:26;22.50;91.30
11426;DHT22;5769;47.998;7.788;2022-08-19T09:05:59;22.50;91.20
11426;DHT22;5769;47.998;7.788;2022-08-19T09:08:39;22.50;91.20
11426;DHT22;5769;47.998;7.788;2022-08-19T09:11:09;22.50;91.20
11426;DHT22;5769;47.998;7.788;2022-08-19T09:13:42;22.50;91.30
11426;DHT22;5769;47.998;7.788;2022-08-19T09:16:16;22.50;91.20
11426;DHT22;5769;47.998;7.788;2022-08-19T09:18:45;22.50;91.10
11426;DHT22;5769;47.998;7.788;2022-08-19T09:21:12;22.50;91.20
11426;DHT22;5769;47.998;7.788;2022-08-19T09:23:39;22.50;91.10
11426;DHT22;5769;47.998;7.788;2022-08-19T09:26:07;22.50;91.10
11426;DHT22;5769;47.998;7.788;2022-08-19T09:28:35;22.50;91.00
11426;DHT22;5769;47.998;7.788;2022-08-19T09:31:02;22.50;90.90
11426;DHT22;5769;47.998;7.788;2022-08-19T09:33:30;22.50;90.90
11426;DHT22;5769;47.998;7.788;2022-08-19T09:36:05;22.50;90.90
11426;DHT22;5769;47.998;7.788;2022-08-19T09:38:33;22.50;91.00
11426;DHT22;5769;47.998;7.788;2022-08-19T09:41:03;22.50;90.80
11426;DHT22;5769;47.998;7.788;2022-08-19T09:43:31;22.50;90.90
11426;DHT22;5769;47.998;7.788;2022-08-19T09:45:58;22.50;90.90
11426;DHT22;5769;47.998;7.788;2022-08-19T09:48:25;22.50;90.90
11426;DHT22;5769;47.998;7.788;2022-08-19T09:50:54;22.60;90.90
11426;DHT22;5769;47.998;7.788;2022-08-19T09:53:21;22.50;90.80
11426;DHT22;5769;47.998;7.788;2022-08-19T09:55:48;22.50;90.80
11426;DHT22;5769;47.998;7.788;2022-08-19T09:58:15;22.50;91.00
11426;DHT22;5769;47.998;7.788;2022-08-19T10:00:42;22.50;90.70
11426;DHT22;5769;47.998;7.788;2022-08-19T10:03:09;22.50;90.70
11426;DHT22;5769;47.998;7.788;2022-08-19T10:05:37;22.50;90.60
11426;DHT22;5769;47.998;7.788;2022-08-19T10:08:20;22.50;90.50
11426;DHT22;5769;47.998;7.788;2022-08-19T10:10:48;22.50;90.50
11426;DHT22;5769;47.998;7.788;2022-08-19T10:13:19;22.50;90.50
11426;DHT22;5769;47.998;7.788;2022-08-19T10:15:47;22.50;90.50
11426;DHT22;5769;47.998;7.788;2022-08-19T10:18:16;22.50;90.40
11426;DHT22;5769;47.998;7.788;2022-08-19T10:20:43;22.50;90.20
11426;DHT22;5769;47.998;7.788;2022-08-19T10:23:10;22.60;90.10
11426;DHT22;5769;47.998;7.788;2022-08-19T10:25:39;22.50;90.00
11426;DHT22;5769;47.998;7.788;2022-08-19T10:28:06;22.50;89.80
11426;DHT22;5769;47.998;7.788;2022-08-19T10:30:33;22.50;89.90
11426;DHT22;5769;47.998;7.788;2022-08-19T10:33:00;22.50;89.70
11426;DHT22;5769;47.998;7.788;2022-08-19T10:35:26;22.50;89.70
11426;DHT22;5769;47.998;7.788;2022-08-19T10:37:54;22.50;89.80
11426;DHT22;5769;47.998;7.788;2022-08-19T10:40:25;22.50;89.20
11426;DHT22;5769;47.998;7.788;2022-08-19T10:42:54;22.50;89.20
11426;DHT22;5769;47.998;7.788;2022-08-19T10:45:21;22.50;89.10
11426;DHT22;5769;47.998;7.788;2022-08-19T10:47:50;22.50;89.20
11426;DHT22;5769;47.998;7.788;2022-08-19T10:50:17;22.50;89.00
11426;DHT22;5769;47.998;7.788;2022-08-19T10:53:04;22.50;89.10
11426;DHT22;5769;47.998;7.788;2022-08-19T10:55:34;22.60;88.70
11426;DHT22;5769;47.998;7.788;2022-08-19T10:58:20;22.50;88.70
11426;DHT22;5769;47.998;7.788;2022-08-19T11:00:52;22.60;89.30
11426;DHT22;5769;47.998;7.788;2022-08-19T11:03:20;22.60;89.10
11426;DHT22;5769;47.998;7.788;2022-08-19T11:05:53;22.60;89.60
11426;DHT22;5769;47.998;7.788;2022-08-19T11:08:23;22.60;89.00
11426;DHT22;5769;47.998;7.788;2022-08-19T11:10:52;22.50;88.60
11426;DHT22;5769;47.998;7.788;2022-08-19T11:13:24;22.60;89.00
11426;DHT22;5769;47.998;7.788;2022-08-19T11:15:59;22.60;88.40
11426;DHT22;5769;47.998;7.788;2022-08-19T11:18:26;22.60;88.70
11426;DHT22;5769;47.998;7.788;2022-08-19T11:20:53;22.60;88.40
11426;DHT22;5769;47.998;7.788;2022-08-19T11:23:20;22.60;88.00
11426;DHT22;5769;47.998;7.788;2022-08-19T11:25:47;22.60;87.90
11426;DHT22;5769;47.998;7.788;2022-08-19T11:28:13;22.60;87.80
11426;DHT22;5769;47.998;7.788;2022-08-19T11:30:43;22.60;87.00
11426;DHT22;5769;47.998;7.788;2022-08-19T11:33:09;22.60;87.10
11426;DHT22;5769;47.998;7.788;2022-08-19T11:35:39;22.60;86.60
11426;DHT22;5769;47.998;7.788;2022-08-19T11:38:06;22.60;86.50
11426;DHT22;5769;47.998;7.788;2022-08-19T11:40:33;22.60;86.40
11426;DHT22;5769;47.998;7.788;2022-08-19T11:43:00;22.60;86.60
11426;DHT22;5769;47.998;7.788;2022-08-19T11:45:28;22.60;86.80
11426;DHT22;5769;47.998;7.788;2022-08-19T11:47:56;22.60;86.40
11426;DHT22;5769;47.998;7.788;2022-08-19T11:50:23;22.60;86.20
11426;DHT22;5769;47.998;7.788;2022-08-19T11:52:53;22.60;86.70
11426;DHT22;5769;47.998;7.788;2022-08-19T11:55:21;22.60;86.40
11426;DHT22;5769;47.998;7.788;2022-08-19T11:57:48;22.60;86.20
11426;DHT22;5769;47.998;7.788;2022-08-19T12:00:15;22.60;85.90
11426;DHT22;5769;47.998;7.788;2022-08-19T12:02:42;22.60;87.70
11426;DHT22;5769;47.998;7.788;2022-08-19T12:05:10;22.60;88.10
11426;DHT22;5769;47.998;7.788;2022-08-19T12:07:37;22.60;88.30
11426;DHT22;5769;47.998;7.788;2022-08-19T12:10:04;22.60;87.80
11426;DHT22;5769;47.998;7.788;2022-08-19T12:12:31;22.60;88.60
11426;DHT22;5769;47.998;7.788;2022-08-19T12:14:57;22.60;88.30
11426;DHT22;5769;47.998;7.788;2022-08-19T12:17:25;22.70;89.20
11426;DHT22;5769;47.998;7.788;2022-08-19T12:19:52;22.60;88.40
11426;DHT22;5769;47.998;7.788;2022-08-19T12:22:20;22.70;89.00
11426;DHT22;5769;47.998;7.788;2022-08-19T12:24:47;22.70;88.20
11426;DHT22;5769;47.998;7.788;2022-08-19T12:27:16;22.70;88.00
11426;DHT22;5769;47.998;7.788;2022-08-19T12:29:42;22.70;88.20
11426;DHT22;5769;47.998;7.788;2022-08-19T12:32:09;22.70;88.40
11426;DHT22;5769;47.998;7.788;2022-08-19T12:34:36;22.70;87.90
11426;DHT22;5769;47.998;7.788;2022-08-19T12:37:05;22.80;88.90
11426;DHT22;5769;47.998;7.788;2022-08-19T12:39:36;22.90;88.00
11426;DHT22;5769;47.998;7.788;2022-08-19T12:42:04;22.90;88.50
11426;DHT22;5769;47.998;7.788;2022-08-19T12:44:31;22.90;88.90
11426;DHT22;5769;47.998;7.788;2022-08-19T12:46:58;22.90;89.00
11426;DHT22;5769;47.998;7.788;2022-08-19T12:49:25;23.00;90.20
11426;DHT22;5769;47.998;7.788;2022-08-19T12:51:53;22.90;89.30
11426;DHT22;5769;47.998;7.788;2022-08-19T12:54:20;23.00;90.10
11426;DHT22;5769;47.998;7.788;2022-08-19T12:56:48;23.00;90.10
11426;DHT22;5769;47.998;7.788;2022-08-19T12:59:14;23.10;90.30
11426;DHT22;5769;47.998;7.788;2022-08-19T13:01:43;23.10;90.30
11426;DHT22;5769;47.998;7.788;2022-08-19T13:04:10;23.10;89.80
11426;DHT22;5769;47.998;7.788;2022-08-19T13:06:37;23.00;86.80
11426;DHT22;5769;47.998;7.788;2022-08-19T13:09:04;23.00;87.40
11426;DHT22;5769;47.998;7.788;2022-08-19T13:11:31;23.10;88.50
11426;DHT22;5769;47.998;7.788;2022-08-19T13:14:02;23.00;88.00
11426;DHT22;5769;47.998;7.788;2022-08-19T13:16:29;23.10;87.70
11426;DHT22;5769;47.998;7.788;2022-08-19T13:18:57;23.10;86.90
11426;DHT22;5769;47.998;7.788;2022-08-19T13:21:26;23.10;87.30
11426;DHT22;5769;47.998;7.788;2022-08-19T13:23:55;23.10;88.20
11426;DHT22;5769;47.998;7.788;2022-08-19T13:26:22;23.10;87.90
11426;DHT22;5769;47.998;7.788;2022-08-19T13:28:49;23.10;87.60
11426;DHT22;5769;47.998;7.788;2022-08-19T13:31:38;23.10;87.10
11426;DHT22;5769;47.998;7.788;2022-08-19T13:34:28;23.10;86.70
11426;DHT22;5769;47.998;7.788;2022-08-19T13:36:56;23.20;86.30
11426;DHT22;5769;47.998;7.788;2022-08-19T13:39:23;23.20;86.30
11426;DHT22;5769;47.998;7.788;2022-08-19T13:41:49;23.20;86.10
11426;DHT22;5769;47.998;7.788;2022-08-19T13:44:17;23.10;85.60
11426;DHT22;5769;47.998;7.788;2022-08-19T13:46:46;23.20;85.70
11426;DHT22;5769;47.998;7.788;2022-08-19T13:49:14;23.20;86.00
11426;DHT22;5769;47.998;7.788;2022-08-19T13:51:42;23.10;86.20
11426;DHT22;5769;47.998;7.788;2022-08-19T13:54:10;23.10;86.90
11426;DHT22;5769;47.998;7.788;2022-08-19T13:56:40;23.10;86.60
11426;DHT22;5769;47.998;7.788;2022-08-19T13:59:07;23.10;87.10
11426;DHT22;5769;47.998;7.788;2022-08-19T14:01:34;23.10;86.30
11426;DHT22;5769;47.998;7.788;2022-08-19T14:04:03;23.10;86.40
11426;DHT22;5769;47.998;7.788;2022-08-19T14:06:31;23.10;87.10
11426;DHT22;5769;47.998;7.788;2022-08-19T14:08:58;23.10;86.10
11426;DHT22;5769;47.998;7.788;2022-08-19T14:11:25;23.10;87.20
11426;DHT22;5769;47.998;7.788;2022-08-19T14:13:52;23.20;86.30
11426;DHT22;5769;47.998;7.788;2022-08-19T14:16:19;23.20;84.80
11426;DHT22;5769;47.998;7.788;2022-08-19T14:18:47;23.20;85.70
11426;DHT22;5769;47.998;7.788;2022-08-19T14:21:17;23.20;86.10
11426;DHT22;5769;47.998;7.788;2022-08-19T14:23:46;23.20;86.90
11426;DHT22;5769;47.998;7.788;2022-08-19T14:26:16;23.20;86.30
11426;DHT22;5769;47.998;7.788;2022-08-19T14:28:43;23.20;85.60
11426;DHT22;5769;47.998;7.788;2022-08-19T14:31:11;23.20;85.20
11426;DHT22;5769;47.998;7.788;2022-08-19T14:33:38;23.20;85.40
11426;DHT22;5769;47.998;7.788;2022-08-19T14:36:06;23.20;85.10
11426;DHT22;5769;47.998;7.788;2022-08-19T14:38:34;23.20;85.10
11426;DHT22;5769;47.998;7.788;2022-08-19T14:41:10;23.10;85.00
11426;DHT22;5769;47.998;7.788;2022-08-19T14:43:38;23.10;84.90
11426;DHT22;5769;47.998;7.788;2022-08-19T14:46:05;23.10;84.60
11426;DHT22;5769;47.998;7.788;2022-08-19T14:48:33;23.10;85.00
11426;DHT22;5769;47.998;7.788;2022-08-19T14:51:01;23.00;85.10
11426;DHT22;5769;47.998;7.788;2022-08-19T14:53:28;23.00;84.90
11426;DHT22;5769;47.998;7.788;2022-08-19T14:55:56;23.00;85.10
11426;DHT22;5769;47.998;7.788;2022-08-19T14:58:23;23.00;85.30
11426;DHT22;5769;47.998;7.788;2022-08-19T15:00:50;23.00;85.60
11426;DHT22;5769;47.998;7.788;2022-08-19T15:03:17;23.00;85.70
11426;DHT22;5769;47.998;7.788;2022-08-19T15:05:43;23.00;85.80
11426;DHT22;5769;47.998;7.788;2022-08-19T15:08:10;23.10;85.90
11426;DHT22;5769;47.998;7.788;2022-08-19T15:10:38;23.10;85.90
11426;DHT22;5769;47.998;7.788;2022-08-19T15:13:07;23.10;86.00
11426;DHT22;5769;47.998;7.788;2022-08-19T15:15:34;23.10;86.40
11426;DHT22;5769;47.998;7.788;2022-08-19T15:18:01;23.10;86.30
11426;DHT22;5769;47.998;7.788;2022-08-19T15:20:29;23.10;86.10
11426;DHT22;5769;47.998;7.788;2022-08-19T15:22:56;23.10;86.60
11426;DHT22;5769;47.998;7.788;2022-08-19T15:25:24;23.10;86.60
11426;DHT22;5769;47.998;7.788;2022-08-19T15:27:51;23.10;86.80
11426;DHT22;5769;47.998;7.788;2022-08-19T15:30:23;23.20;86.80
11426;DHT22;5769;47.998;7.788;2022-08-19T15:32:50;23.20;86.80
11426;DHT22;5769;47.998;7.788;2022-08-19T15:35:20;23.20;86.80
11426;DHT22;5769;47.998;7.788;2022-08-19T15:37:48;23.20;86.90
11426;DHT22;5769;47.998;7.788;2022-08-19T15:40:15;23.30;87.00
11426;DHT22;5769;47.998;7.788;2022-08-19T15:42:42;23.20;86.90
11426;DHT22;5769;47.998;7.788;2022-08-19T15:45:09;23.20;86.70
11426;DHT22;5769;47.998;7.788;2022-08-19T15:47:38;23.30;86.90
11426;DHT22;5769;47.998;7.788;2022-08-19T15:50:06;23.30;87.10
11426;DHT22;5769;47.998;7.788;2022-08-19T15:52:33;23.30;86.90